Airfield :
LOGIN :

Register | Disclaimer

   EN    FR    IT 

 










Legend :    VFR   Marginal VFR   IFR   Intensive IFR   Very Intensive IFR
Visi :
Ceiling :
>= 8 km
>= 3000ft
5 to 8 km
1000 to 3000 ft
1500m to 5 km
500 to 1000 ft
800 to 1500m
200 to 500 ft
< 800m
< 200 ft
Symbols :   Thunderstorms  Fog  Heavy snow  Heavy precipitations  Wind > 20 kt
SIGMETs :     Misc.  Thunderstorms  Icing  Turbulence  Mountain Waves  Volcanic Ashes







- Airport Elevation : 26 ft
- IATA code : BIA
- Download approach charts


LFKB - Bastia

CURRENT METAR :
  • 172100Z AUTO 04011KT 9999 BKN037/// BKN045/// BKN070/// ///TCU 12/05 Q1019 TEMPO 4000 SHRA

EXPIRED METARs :
  • 172030Z AUTO 05012KT 020V080 9999 BKN038 BKN050 BKN082 12/05 Q1019 TEMPO 4000 SHRA BKN030 FEW040TCU
  • 172000Z AUTO 04013KT 9999 BKN037/// BKN045/// BKN060/// ///TCU 12/05 Q1019 TEMPO 23005KT SHRA
  • 171930Z AUTO 05014KT 020V080 9999 BKN037 BKN043 BKN054 13/06 Q1019 TEMPO 23005KT SHRA BKN030 FEW040TCU
  • 171900Z AUTO 05014KT 010V070 9999 BKN038 BKN050 BKN060 13/06 Q1019 TEMPO 23005KT SHRA BKN030 FEW040TCU
  • 171830Z AUTO 04012KT 9999 BKN036/// BKN042/// BKN054/// ///TCU 13/06 Q1019 TEMPO 23005KT SHRA

TAF TAF LFKB
Valid from the 17 at 21:00 until the 18 at 21:00 UTC


172000Z 1721/1821 VRB04KT 9999 BKN035 BKN060 TX14/1812Z TN08/1804Z
TEMPO 1721/1724 BKN030 FEW040TCU
PROB30
TEMPO 1721/1724 4000 SHRA
BECMG 1807/1809 04010KT SCT030
ATIS : +33 4 95 59 19 40
No reported NOTAMs for that airfield.
2 SIGMETs reported for the Marseille FIR (LFMM) :
 
Severe turbulence
LFMM SIGMET 5 VALID 172100/180100 LFPW
LFMM MARSEILLE FIR/UIR SEV TURB FCST WI N4500 E00700 - N4400 E00700 - N4315 E00945 - N4215 E00815 - N4300 E00530 - N4500 E00615 - N4500 E00700 SFC/FL070 STNR NC=
Embedded thunderstorms
LFMM SIGMET 4 VALID 171800/172200 LFPW
LFMM MARSEILLE FIR/UIR EMBD TS FCST WI N4145 E00945 - N4115 E00945 - N4115 E00800 - N3900 E00800 - N3900 E00615 - N4215 E00730 - N4145 E00945 TOP FL260 STNR NC=



MET'MAP, your aeronautical weather chart ! - Copyright ORBIFLY December 2007 - Disclaimer

ORBIFLY MET'MAP TEAM :

Programming & Development : Alexandra Zaïnal
Concept & Development : Baudouin d'Aumeries
Co-Development & Prog : Marc-Olivier Méhu
Technical & hardware support : Manuel Goepfert

Contact : metmap@orbifly.com




SOURCES & CREDITS :

   NOAA